sensor_id;sensor_type;location;lat;lon;timestamp;temperature;humidity
1075;DHT22;526;51.392;12.448;2023-12-20T05:00:46;5.30;97.30
1075;DHT22;526;51.392;12.448;2023-12-20T05:03:11;5.30;97.30
1075;DHT22;526;51.392;12.448;2023-12-20T05:05:37;5.30;97.30
1075;DHT22;526;51.392;12.448;2023-12-20T05:08:03;5.30;97.30
1075;DHT22;526;51.392;12.448;2023-12-20T05:10:29;5.40;97.30
1075;DHT22;526;51.392;12.448;2023-12-20T05:12:54;5.40;97.30
1075;DHT22;526;51.392;12.448;2023-12-20T05:15:29;5.40;97.30
1075;DHT22;526;51.392;12.448;2023-12-20T05:17:54;5.40;97.30
1075;DHT22;526;51.392;12.448;2023-12-20T05:20:19;5.40;97.30
1075;DHT22;526;51.392;12.448;2023-12-20T05:22:45;5.40;97.30
1075;DHT22;526;51.392;12.448;2023-12-20T05:25:11;5.50;97.30
1075;DHT22;526;51.392;12.448;2023-12-20T05:27:37;5.50;97.30
1075;DHT22;526;51.392;12.448;2023-12-20T05:30:02;5.50;97.30
1075;DHT22;526;51.392;12.448;2023-12-20T05:32:30;5.40;97.30
1075;DHT22;526;51.392;12.448;2023-12-20T05:34:56;5.40;97.30
1075;DHT22;526;51.392;12.448;2023-12-20T05:37:22;5.40;97.30
1075;DHT22;526;51.392;12.448;2023-12-20T05:39:47;5.40;97.30
1075;DHT22;526;51.392;12.448;2023-12-20T05:42:12;5.40;97.30
1075;DHT22;526;51.392;12.448;2023-12-20T05:44:38;5.40;97.30
1075;DHT22;526;51.392;12.448;2023-12-20T05:47:04;5.40;97.30
1075;DHT22;526;51.392;12.448;2023-12-20T05:49:29;5.30;97.30
1075;DHT22;526;51.392;12.448;2023-12-20T05:51:55;5.30;97.30
1075;DHT22;526;51.392;12.448;2023-12-20T05:54:20;5.30;97.30
1075;DHT22;526;51.392;12.448;2023-12-20T05:56:46;5.30;97.30
1075;DHT22;526;51.392;12.448;2023-12-20T05:59:12;5.30;97.30
1075;DHT22;526;51.392;12.448;2023-12-20T06:01:37;5.30;97.30
1075;DHT22;526;51.392;12.448;2023-12-20T06:04:03;5.30;97.30
1075;DHT22;526;51.392;12.448;2023-12-20T06:06:29;5.30;97.30
1075;DHT22;526;51.392;12.448;2023-12-20T06:08:55;5.30;97.30
1075;DHT22;526;51.392;12.448;2023-12-20T06:11:21;5.30;97.30
1075;DHT22;526;51.392;12.448;2023-12-20T06:13:46;5.30;97.30
1075;DHT22;526;51.392;12.448;2023-12-20T06:16:12;5.30;97.30
1075;DHT22;526;51.392;12.448;2023-12-20T06:18:38;5.30;97.30
1075;DHT22;526;51.392;12.448;2023-12-20T06:21:03;5.20;97.30
1075;DHT22;526;51.392;12.448;2023-12-20T06:23:29;5.20;97.30
1075;DHT22;526;51.392;12.448;2023-12-20T06:25:55;5.20;97.30
1075;DHT22;526;51.392;12.448;2023-12-20T06:28:20;5.20;97.30
1075;DHT22;526;51.392;12.448;2023-12-20T06:30:46;5.10;97.30
1075;DHT22;526;51.392;12.448;2023-12-20T06:33:14;5.10;97.30
1075;DHT22;526;51.392;12.448;2023-12-20T06:35:40;5.10;97.30
1075;DHT22;526;51.392;12.448;2023-12-20T06:38:05;5.00;97.30
1075;DHT22;526;51.392;12.448;2023-12-20T06:40:31;5.00;97.30
1075;DHT22;526;51.392;12.448;2023-12-20T06:42:56;5.00;97.30
1075;DHT22;526;51.392;12.448;2023-12-20T06:45:22;4.90;97.30
1075;DHT22;526;51.392;12.448;2023-12-20T06:47:47;4.90;97.30
1075;DHT22;526;51.392;12.448;2023-12-20T06:50:13;4.90;97.30
1075;DHT22;526;51.392;12.448;2023-12-20T06:52:38;4.80;97.30
1075;DHT22;526;51.392;12.448;2023-12-20T06:55:04;4.80;97.30
1075;DHT22;526;51.392;12.448;2023-12-20T06:57:30;4.80;97.30
1075;DHT22;526;51.392;12.448;2023-12-20T06:59:55;4.80;97.30
1075;DHT22;526;51.392;12.448;2023-12-20T07:02:21;4.80;97.30
1075;DHT22;526;51.392;12.448;2023-12-20T07:04:47;4.80;97.30
1075;DHT22;526;51.392;12.448;2023-12-20T07:07:13;4.80;97.30
1075;DHT22;526;51.392;12.448;2023-12-20T07:09:38;4.90;97.30
1075;DHT22;526;51.392;12.448;2023-12-20T07:12:06;4.90;97.30
1075;DHT22;526;51.392;12.448;2023-12-20T07:14:31;4.90;97.30
1075;DHT22;526;51.392;12.448;2023-12-20T07:16:57;4.80;97.30
1075;DHT22;526;51.392;12.448;2023-12-20T07:19:22;4.90;97.30
1075;DHT22;526;51.392;12.448;2023-12-20T07:21:48;4.90;97.30
1075;DHT22;526;51.392;12.448;2023-12-20T07:24:13;4.90;97.30
1075;DHT22;526;51.392;12.448;2023-12-20T07:26:39;4.90;97.30
1075;DHT22;526;51.392;12.448;2023-12-20T07:29:05;4.90;97.30
1075;DHT22;526;51.392;12.448;2023-12-20T07:31:32;4.90;97.30
1075;DHT22;526;51.392;12.448;2023-12-20T07:33:57;4.90;97.30
1075;DHT22;526;51.392;12.448;2023-12-20T07:36:23;4.90;97.30
1075;DHT22;526;51.392;12.448;2023-12-20T07:38:48;4.90;97.30
1075;DHT22;526;51.392;12.448;2023-12-20T07:41:14;4.90;97.30
1075;DHT22;526;51.392;12.448;2023-12-20T07:43:41;4.90;97.30
1075;DHT22;526;51.392;12.448;2023-12-20T07:46:07;5.00;97.30
1075;DHT22;526;51.392;12.448;2023-12-20T07:48:36;5.00;97.30
1075;DHT22;526;51.392;12.448;2023-12-20T07:51:03;5.00;97.30
1075;DHT22;526;51.392;12.448;2023-12-20T07:53:28;5.00;97.30
1075;DHT22;526;51.392;12.448;2023-12-20T07:55:54;5.10;97.30
1075;DHT22;526;51.392;12.448;2023-12-20T07:58:20;5.10;97.30
1075;DHT22;526;51.392;12.448;2023-12-20T08:00:45;5.10;97.30
1075;DHT22;526;51.392;12.448;2023-12-20T08:03:11;5.10;97.30
1075;DHT22;526;51.392;12.448;2023-12-20T08:05:37;5.10;97.30
1075;DHT22;526;51.392;12.448;2023-12-20T08:08:04;5.10;97.30
1075;DHT22;526;51.392;12.448;2023-12-20T08:10:30;5.10;97.30
1075;DHT22;526;51.392;12.448;2023-12-20T08:12:56;5.10;97.30
1075;DHT22;526;51.392;12.448;2023-12-20T08:15:21;5.10;97.30
1075;DHT22;526;51.392;12.448;2023-12-20T08:17:46;5.10;97.30
1075;DHT22;526;51.392;12.448;2023-12-20T08:20:12;5.10;97.30
1075;DHT22;526;51.392;12.448;2023-12-20T08:22:38;5.10;97.30
1075;DHT22;526;51.392;12.448;2023-12-20T08:25:03;5.10;97.30
1075;DHT22;526;51.392;12.448;2023-12-20T08:27:29;5.20;97.30
1075;DHT22;526;51.392;12.448;2023-12-20T08:29:57;5.20;97.30
1075;DHT22;526;51.392;12.448;2023-12-20T08:32:25;5.30;97.30
1075;DHT22;526;51.392;12.448;2023-12-20T08:34:52;5.30;97.30
1075;DHT22;526;51.392;12.448;2023-12-20T08:37:18;5.30;97.30
1075;DHT22;526;51.392;12.448;2023-12-20T08:39:43;5.30;97.30
1075;DHT22;526;51.392;12.448;2023-12-20T08:42:09;5.30;97.30
1075;DHT22;526;51.392;12.448;2023-12-20T08:44:34;5.40;97.30
1075;DHT22;526;51.392;12.448;2023-12-20T08:47:00;5.40;97.30
1075;DHT22;526;51.392;12.448;2023-12-20T08:49:25;5.40;97.30
1075;DHT22;526;51.392;12.448;2023-12-20T08:51:51;5.50;97.30
1075;DHT22;526;51.392;12.448;2023-12-20T08:54:16;5.50;97.30
1075;DHT22;526;51.392;12.448;2023-12-20T08:56:42;5.50;97.30
1075;DHT22;526;51.392;12.448;2023-12-20T08:59:09;5.60;97.30
1075;DHT22;526;51.392;12.448;2023-12-20T09:01:34;5.60;97.30
1075;DHT22;526;51.392;12.448;2023-12-20T09:04:00;5.70;97.30
1075;DHT22;526;51.392;12.448;2023-12-20T09:06:25;5.80;97.30
1075;DHT22;526;51.392;12.448;2023-12-20T09:08:51;5.90;97.30
1075;DHT22;526;51.392;12.448;2023-12-20T09:11:17;6.00;97.30
1075;DHT22;526;51.392;12.448;2023-12-20T09:13:43;6.00;97.30
1075;DHT22;526;51.392;12.448;2023-12-20T09:16:09;6.10;97.30
1075;DHT22;526;51.392;12.448;2023-12-20T09:18:35;6.20;97.30
1075;DHT22;526;51.392;12.448;2023-12-20T09:21:01;6.20;97.30
1075;DHT22;526;51.392;12.448;2023-12-20T09:23:27;6.20;97.30
1075;DHT22;526;51.392;12.448;2023-12-20T09:25:53;6.10;97.30
1075;DHT22;526;51.392;12.448;2023-12-20T09:28:19;6.00;97.30
1075;DHT22;526;51.392;12.448;2023-12-20T09:30:44;6.00;97.30
1075;DHT22;526;51.392;12.448;2023-12-20T09:33:11;6.00;97.30
1075;DHT22;526;51.392;12.448;2023-12-20T09:35:37;5.90;97.30
1075;DHT22;526;51.392;12.448;2023-12-20T09:38:02;5.90;97.30
1075;DHT22;526;51.392;12.448;2023-12-20T09:40:29;5.90;97.30
1075;DHT22;526;51.392;12.448;2023-12-20T09:42:58;5.80;97.30
1075;DHT22;526;51.392;12.448;2023-12-20T09:45:24;5.90;97.30
1075;DHT22;526;51.392;12.448;2023-12-20T09:47:52;6.00;97.30
1075;DHT22;526;51.392;12.448;2023-12-20T09:50:21;6.00;97.30
1075;DHT22;526;51.392;12.448;2023-12-20T09:52:51;6.10;97.30
1075;DHT22;526;51.392;12.448;2023-12-20T09:55:18;6.10;97.30
1075;DHT22;526;51.392;12.448;2023-12-20T09:57:48;6.20;97.30
1075;DHT22;526;51.392;12.448;2023-12-20T10:00:14;6.30;97.30
1075;DHT22;526;51.392;12.448;2023-12-20T10:02:50;6.40;97.30
1075;DHT22;526;51.392;12.448;2023-12-20T10:05:33;6.50;97.30
1075;DHT22;526;51.392;12.448;2023-12-20T10:07:59;6.50;97.30
1075;DHT22;526;51.392;12.448;2023-12-20T10:10:26;6.50;97.30
1075;DHT22;526;51.392;12.448;2023-12-20T10:13:05;6.50;97.30
1075;DHT22;526;51.392;12.448;2023-12-20T10:15:35;6.50;97.30
1075;DHT22;526;51.392;12.448;2023-12-20T10:18:02;6.50;97.30
1075;DHT22;526;51.392;12.448;2023-12-20T10:20:28;6.80;97.30
1075;DHT22;526;51.392;12.448;2023-12-20T10:22:57;6.90;97.30
1075;DHT22;526;51.392;12.448;2023-12-20T10:25:24;6.90;97.30
1075;DHT22;526;51.392;12.448;2023-12-20T10:27:50;6.90;97.30
1075;DHT22;526;51.392;12.448;2023-12-20T10:30:16;6.80;97.30
1075;DHT22;526;51.392;12.448;2023-12-20T10:32:41;6.90;97.30
1075;DHT22;526;51.392;12.448;2023-12-20T10:35:08;7.10;97.30
1075;DHT22;526;51.392;12.448;2023-12-20T10:37:37;7.20;97.30
1075;DHT22;526;51.392;12.448;2023-12-20T10:40:04;7.30;97.30
1075;DHT22;526;51.392;12.448;2023-12-20T10:42:31;7.30;97.30
1075;DHT22;526;51.392;12.448;2023-12-20T10:44:59;7.30;97.30
1075;DHT22;526;51.392;12.448;2023-12-20T10:47:25;7.40;97.30
1075;DHT22;526;51.392;12.448;2023-12-20T10:49:54;7.50;97.30
1075;DHT22;526;51.392;12.448;2023-12-20T10:52:23;7.70;97.30
1075;DHT22;526;51.392;12.448;2023-12-20T10:54:48;7.70;97.30
1075;DHT22;526;51.392;12.448;2023-12-20T10:57:18;7.80;97.30
1075;DHT22;526;51.392;12.448;2023-12-20T10:59:45;7.90;97.30
1075;DHT22;526;51.392;12.448;2023-12-20T11:02:13;8.00;97.30
1075;DHT22;526;51.392;12.448;2023-12-20T11:04:47;8.10;97.30
1075;DHT22;526;51.392;12.448;2023-12-20T11:07:18;7.90;97.30
1075;DHT22;526;51.392;12.448;2023-12-20T11:09:49;7.70;97.30
1075;DHT22;526;51.392;12.448;2023-12-20T11:12:34;7.60;97.30
1075;DHT22;526;51.392;12.448;2023-12-20T11:15:03;7.50;97.30
1075;DHT22;526;51.392;12.448;2023-12-20T11:17:31;7.50;97.30
1075;DHT22;526;51.392;12.448;2023-12-20T11:22:24;7.40;97.30
1075;DHT22;526;51.392;12.448;2023-12-20T11:24:51;7.30;97.30
1075;DHT22;526;51.392;12.448;2023-12-20T11:27:18;7.30;97.30
1075;DHT22;526;51.392;12.448;2023-12-20T11:29:51;7.30;97.30
1075;DHT22;526;51.392;12.448;2023-12-20T11:37:40;7.20;97.30
1075;DHT22;526;51.392;12.448;2023-12-20T11:40:12;7.20;97.30
1075;DHT22;526;51.392;12.448;2023-12-20T11:42:41;7.30;97.30
1075;DHT22;526;51.392;12.448;2023-12-20T11:45:10;7.30;97.30
1075;DHT22;526;51.392;12.448;2023-12-20T11:47:36;7.20;97.30
1075;DHT22;526;51.392;12.448;2023-12-20T11:50:02;7.20;97.30
1075;DHT22;526;51.392;12.448;2023-12-20T11:52:29;7.20;97.30
1075;DHT22;526;51.392;12.448;2023-12-20T11:54:55;7.20;97.30
1075;DHT22;526;51.392;12.448;2023-12-20T11:57:20;7.20;97.30
1075;DHT22;526;51.392;12.448;2023-12-20T11:59:46;7.20;97.30
1075;DHT22;526;51.392;12.448;2023-12-20T12:02:12;7.10;97.30
1075;DHT22;526;51.392;12.448;2023-12-20T12:04:38;7.10;97.30
1075;DHT22;526;51.392;12.448;2023-12-20T12:07:04;7.10;97.30
1075;DHT22;526;51.392;12.448;2023-12-20T12:09:29;7.10;97.30
1075;DHT22;526;51.392;12.448;2023-12-20T12:11:55;7.10;97.30
1075;DHT22;526;51.392;12.448;2023-12-20T12:14:20;7.20;97.30
1075;DHT22;526;51.392;12.448;2023-12-20T12:16:46;7.20;97.30
1075;DHT22;526;51.392;12.448;2023-12-20T12:19:22;7.10;97.30
1075;DHT22;526;51.392;12.448;2023-12-20T12:22:03;7.10;97.30
1075;DHT22;526;51.392;12.448;2023-12-20T12:24:30;7.10;97.30
1075;DHT22;526;51.392;12.448;2023-12-20T12:26:57;7.20;97.30
1075;DHT22;526;51.392;12.448;2023-12-20T12:29:23;7.10;97.30
1075;DHT22;526;51.392;12.448;2023-12-20T12:31:50;7.10;97.30
1075;DHT22;526;51.392;12.448;2023-12-20T12:34:16;7.20;97.30
1075;DHT22;526;51.392;12.448;2023-12-20T12:36:43;7.30;97.30
1075;DHT22;526;51.392;12.448;2023-12-20T12:39:09;7.30;97.30
1075;DHT22;526;51.392;12.448;2023-12-20T12:41:37;7.30;97.30
1075;DHT22;526;51.392;12.448;2023-12-20T12:44:02;7.30;97.30
1075;DHT22;526;51.392;12.448;2023-12-20T12:46:28;7.30;97.30
1075;DHT22;526;51.392;12.448;2023-12-20T12:48:53;7.30;97.30
1075;DHT22;526;51.392;12.448;2023-12-20T12:51:19;7.20;97.30
1075;DHT22;526;51.392;12.448;2023-12-20T12:53:44;7.30;97.30
1075;DHT22;526;51.392;12.448;2023-12-20T12:56:10;7.40;97.30
1075;DHT22;526;51.392;12.448;2023-12-20T12:58:37;7.50;97.30
1075;DHT22;526;51.392;12.448;2023-12-20T13:01:03;7.50;97.30
1075;DHT22;526;51.392;12.448;2023-12-20T13:03:29;7.50;97.30
1075;DHT22;526;51.392;12.448;2023-12-20T13:05:54;7.40;97.30
1075;DHT22;526;51.392;12.448;2023-12-20T13:08:20;7.40;97.30
1075;DHT22;526;51.392;12.448;2023-12-20T13:10:46;7.30;97.30
1075;DHT22;526;51.392;12.448;2023-12-20T13:13:11;7.30;97.30
1075;DHT22;526;51.392;12.448;2023-12-20T13:15:37;7.20;97.30
1075;DHT22;526;51.392;12.448;2023-12-20T13:18:02;7.20;97.30
1075;DHT22;526;51.392;12.448;2023-12-20T13:20:29;7.20;97.30
1075;DHT22;526;51.392;12.448;2023-12-20T13:22:55;7.20;97.30
1075;DHT22;526;51.392;12.448;2023-12-20T13:25:20;7.30;97.30
1075;DHT22;526;51.392;12.448;2023-12-20T13:27:46;7.40;97.30
1075;DHT22;526;51.392;12.448;2023-12-20T13:30:12;7.60;97.30
1075;DHT22;526;51.392;12.448;2023-12-20T13:32:37;8.00;97.30
1075;DHT22;526;51.392;12.448;2023-12-20T13:35:03;8.30;97.30
1075;DHT22;526;51.392;12.448;2023-12-20T13:37:29;8.50;97.30
1075;DHT22;526;51.392;12.448;2023-12-20T13:39:55;8.40;97.30
1075;DHT22;526;51.392;12.448;2023-12-20T13:42:20;8.50;97.30
1075;DHT22;526;51.392;12.448;2023-12-20T13:44:46;8.60;97.30
1075;DHT22;526;51.392;12.448;2023-12-20T13:47:12;8.60;97.30
1075;DHT22;526;51.392;12.448;2023-12-20T13:49:37;8.30;97.30
1075;DHT22;526;51.392;12.448;2023-12-20T13:52:03;8.30;97.30
1075;DHT22;526;51.392;12.448;2023-12-20T13:54:29;8.40;97.30
1075;DHT22;526;51.392;12.448;2023-12-20T13:56:55;8.50;97.30
1075;DHT22;526;51.392;12.448;2023-12-20T13:59:20;8.70;97.30
1075;DHT22;526;51.392;12.448;2023-12-20T14:01:46;8.70;97.30
1075;DHT22;526;51.392;12.448;2023-12-20T14:04:11;8.60;97.30
1075;DHT22;526;51.392;12.448;2023-12-20T14:06:37;8.60;97.30
1075;DHT22;526;51.392;12.448;2023-12-20T14:09:02;8.50;97.30
1075;DHT22;526;51.392;12.448;2023-12-20T14:11:28;8.30;97.30
1075;DHT22;526;51.392;12.448;2023-12-20T14:13:54;8.30;97.30
1075;DHT22;526;51.392;12.448;2023-12-20T14:16:24;8.00;97.30
1075;DHT22;526;51.392;12.448;2023-12-20T14:18:49;7.80;97.30
1075;DHT22;526;51.392;12.448;2023-12-20T14:21:17;7.70;97.30
1075;DHT22;526;51.392;12.448;2023-12-20T14:23:42;7.60;97.30
1075;DHT22;526;51.392;12.448;2023-12-20T14:26:08;7.50;97.30
1075;DHT22;526;51.392;12.448;2023-12-20T14:28:41;7.40;97.30
1075;DHT22;526;51.392;12.448;2023-12-20T14:31:06;7.30;97.30
1075;DHT22;526;51.392;12.448;2023-12-20T14:33:32;7.30;97.30
1075;DHT22;526;51.392;12.448;2023-12-20T14:35:57;7.30;97.30
1075;DHT22;526;51.392;12.448;2023-12-20T14:38:23;7.30;97.30
1075;DHT22;526;51.392;12.448;2023-12-20T14:40:48;7.20;97.30
1075;DHT22;526;51.392;12.448;2023-12-20T14:43:14;7.20;97.30
1075;DHT22;526;51.392;12.448;2023-12-20T14:45:39;7.20;97.30
1075;DHT22;526;51.392;12.448;2023-12-20T14:48:05;7.10;97.30
1075;DHT22;526;51.392;12.448;2023-12-20T14:50:31;7.10;97.30
1075;DHT22;526;51.392;12.448;2023-12-20T14:52:56;7.10;97.30
1075;DHT22;526;51.392;12.448;2023-12-20T14:55:22;7.10;97.30
1075;DHT22;526;51.392;12.448;2023-12-20T14:57:48;7.00;97.30
1075;DHT22;526;51.392;12.448;2023-12-20T15:00:14;7.00;97.30
1075;DHT22;526;51.392;12.448;2023-12-20T15:02:41;7.00;97.30
1075;DHT22;526;51.392;12.448;2023-12-20T15:05:07;7.10;97.30
1075;DHT22;526;51.392;12.448;2023-12-20T15:07:33;7.10;97.30
1075;DHT22;526;51.392;12.448;2023-12-20T15:09:58;7.10;97.30
1075;DHT22;526;51.392;12.448;2023-12-20T15:12:24;7.10;97.30
1075;DHT22;526;51.392;12.448;2023-12-20T15:14:49;7.10;97.30
1075;DHT22;526;51.392;12.448;2023-12-20T15:17:15;7.10;97.30
1075;DHT22;526;51.392;12.448;2023-12-20T15:19:41;7.00;97.30
1075;DHT22;526;51.392;12.448;2023-12-20T15:22:08;6.90;97.30
1075;DHT22;526;51.392;12.448;2023-12-20T15:24:33;6.90;97.30
1075;DHT22;526;51.392;12.448;2023-12-20T15:27:05;6.80;97.30
1075;DHT22;526;51.392;12.448;2023-12-20T15:29:30;6.80;97.30
1075;DHT22;526;51.392;12.448;2023-12-20T15:31:56;6.80;97.30
1075;DHT22;526;51.392;12.448;2023-12-20T15:34:22;6.80;97.30
1075;DHT22;526;51.392;12.448;2023-12-20T15:36:47;6.80;97.30
1075;DHT22;526;51.392;12.448;2023-12-20T15:39:13;6.80;97.30
1075;DHT22;526;51.392;12.448;2023-12-20T15:41:41;6.80;97.30
1075;DHT22;526;51.392;12.448;2023-12-20T15:44:07;6.80;97.30
1075;DHT22;526;51.392;12.448;2023-12-20T15:46:33;6.80;97.30
1075;DHT22;526;51.392;12.448;2023-12-20T15:48:59;6.80;97.30
1075;DHT22;526;51.392;12.448;2023-12-20T15:51:24;6.80;97.30
1075;DHT22;526;51.392;12.448;2023-12-20T15:53:50;6.80;97.30
1075;DHT22;526;51.392;12.448;2023-12-20T15:56:16;6.70;97.30
1075;DHT22;526;51.392;12.448;2023-12-20T15:58:42;6.80;97.30
1075;DHT22;526;51.392;12.448;2023-12-20T16:01:08;6.70;97.30
1075;DHT22;526;51.392;12.448;2023-12-20T16:03:34;6.70;97.30
1075;DHT22;526;51.392;12.448;2023-12-20T16:05:59;6.70;97.30
1075;DHT22;526;51.392;12.448;2023-12-20T16:08:25;6.70;97.30
1075;DHT22;526;51.392;12.448;2023-12-20T16:10:50;6.70;97.30
1075;DHT22;526;51.392;12.448;2023-12-20T16:13:16;6.70;97.30
1075;DHT22;526;51.392;12.448;2023-12-20T16:15:42;6.70;97.30
1075;DHT22;526;51.392;12.448;2023-12-20T16:18:08;6.70;97.30
1075;DHT22;526;51.392;12.448;2023-12-20T16:20:39;6.60;97.30
1075;DHT22;526;51.392;12.448;2023-12-20T16:23:05;6.60;97.30
1075;DHT22;526;51.392;12.448;2023-12-20T16:25:30;6.60;97.30
1075;DHT22;526;51.392;12.448;2023-12-20T16:27:56;6.40;97.30
1075;DHT22;526;51.392;12.448;2023-12-20T16:30:22;6.20;97.30
1075;DHT22;526;51.392;12.448;2023-12-20T16:32:47;6.10;97.30
1075;DHT22;526;51.392;12.448;2023-12-20T16:35:13;6.00;97.30
1075;DHT22;526;51.392;12.448;2023-12-20T16:37:39;5.90;97.30
1075;DHT22;526;51.392;12.448;2023-12-20T16:40:06;5.90;97.30
1075;DHT22;526;51.392;12.448;2023-12-20T16:42:32;5.90;97.30
1075;DHT22;526;51.392;12.448;2023-12-20T16:44:58;5.90;97.30
1075;DHT22;526;51.392;12.448;2023-12-20T16:47:23;5.90;97.30
1075;DHT22;526;51.392;12.448;2023-12-20T16:49:49;6.00;97.30
1075;DHT22;526;51.392;12.448;2023-12-20T16:52:14;6.00;97.30
1075;DHT22;526;51.392;12.448;2023-12-20T16:54:40;6.00;97.30
1075;DHT22;526;51.392;12.448;2023-12-20T16:57:06;5.90;97.30
1075;DHT22;526;51.392;12.448;2023-12-20T16:59:32;5.90;97.30
1075;DHT22;526;51.392;12.448;2023-12-20T17:01:57;5.90;97.30
1075;DHT22;526;51.392;12.448;2023-12-20T17:04:23;5.90;97.30
1075;DHT22;526;51.392;12.448;2023-12-20T17:06:49;5.80;97.30
1075;DHT22;526;51.392;12.448;2023-12-20T17:09:15;5.80;97.30
1075;DHT22;526;51.392;12.448;2023-12-20T17:11:43;5.80;97.30
1075;DHT22;526;51.392;12.448;2023-12-20T17:14:09;5.80;97.30
1075;DHT22;526;51.392;12.448;2023-12-20T17:16:36;5.80;97.30
1075;DHT22;526;51.392;12.448;2023-12-20T17:19:02;5.80;97.30
1075;DHT22;526;51.392;12.448;2023-12-20T17:21:32;5.80;97.30
1075;DHT22;526;51.392;12.448;2023-12-20T17:23:57;5.70;97.30
1075;DHT22;526;51.392;12.448;2023-12-20T17:26:23;5.70;97.30
1075;DHT22;526;51.392;12.448;2023-12-20T17:28:48;5.70;97.30
1075;DHT22;526;51.392;12.448;2023-12-20T17:31:14;5.60;97.30
1075;DHT22;526;51.392;12.448;2023-12-20T17:33:40;5.60;97.30
1075;DHT22;526;51.392;12.448;2023-12-20T17:36:06;5.60;97.30
1075;DHT22;526;51.392;12.448;2023-12-20T17:38:32;5.60;97.30
1075;DHT22;526;51.392;12.448;2023-12-20T17:41:01;5.60;97.30
1075;DHT22;526;51.392;12.448;2023-12-20T17:43:27;5.50;97.30
1075;DHT22;526;51.392;12.448;2023-12-20T17:45:52;5.50;97.30
1075;DHT22;526;51.392;12.448;2023-12-20T17:48:18;5.50;97.30
1075;DHT22;526;51.392;12.448;2023-12-20T17:50:43;5.50;97.30
1075;DHT22;526;51.392;12.448;2023-12-20T17:53:09;5.50;97.30
1075;DHT22;526;51.392;12.448;2023-12-20T17:55:34;5.50;97.30
1075;DHT22;526;51.392;12.448;2023-12-20T17:58:00;5.50;97.30
1075;DHT22;526;51.392;12.448;2023-12-20T18:00:28;5.50;97.30
1075;DHT22;526;51.392;12.448;2023-12-20T18:02:56;5.50;97.30
1075;DHT22;526;51.392;12.448;2023-12-20T18:05:22;5.50;97.30
1075;DHT22;526;51.392;12.448;2023-12-20T18:07:47;5.50;97.30
1075;DHT22;526;51.392;12.448;2023-12-20T18:10:14;5.50;97.30
1075;DHT22;526;51.392;12.448;2023-12-20T18:12:40;5.50;97.30
1075;DHT22;526;51.392;12.448;2023-12-20T18:15:06;5.40;97.30
1075;DHT22;526;51.392;12.448;2023-12-20T18:17:31;5.40;97.30
1075;DHT22;526;51.392;12.448;2023-12-20T18:19:57;5.50;97.30
1075;DHT22;526;51.392;12.448;2023-12-20T18:22:25;5.50;97.30
1075;DHT22;526;51.392;12.448;2023-12-20T18:24:51;5.50;97.30
1075;DHT22;526;51.392;12.448;2023-12-20T18:27:17;5.40;97.30
1075;DHT22;526;51.392;12.448;2023-12-20T18:29:42;5.40;97.30
1075;DHT22;526;51.392;12.448;2023-12-20T18:32:08;5.40;97.30
1075;DHT22;526;51.392;12.448;2023-12-20T18:34:33;5.40;97.30
1075;DHT22;526;51.392;12.448;2023-12-20T18:36:59;5.40;97.30
1075;DHT22;526;51.392;12.448;2023-12-20T18:39:25;5.30;97.30
1075;DHT22;526;51.392;12.448;2023-12-20T18:41:50;5.30;97.30
1075;DHT22;526;51.392;12.448;2023-12-20T18:44:16;5.40;97.30
1075;DHT22;526;51.392;12.448;2023-12-20T18:46:43;5.40;97.30
1075;DHT22;526;51.392;12.448;2023-12-20T18:49:09;5.40;97.30
1075;DHT22;526;51.392;12.448;2023-12-20T18:51:35;5.40;97.30
1075;DHT22;526;51.392;12.448;2023-12-20T18:54:00;5.40;97.30
1075;DHT22;526;51.392;12.448;2023-12-20T18:56:27;5.40;97.30
1075;DHT22;526;51.392;12.448;2023-12-20T18:58:52;5.40;97.30
1075;DHT22;526;51.392;12.448;2023-12-20T19:01:18;5.40;97.30
1075;DHT22;526;51.392;12.448;2023-12-20T19:03:44;5.40;97.30
1075;DHT22;526;51.392;12.448;2023-12-20T19:06:09;5.40;97.30
1075;DHT22;526;51.392;12.448;2023-12-20T19:08:36;5.40;97.30
1075;DHT22;526;51.392;12.448;2023-12-20T19:11:02;5.40;97.30
1075;DHT22;526;51.392;12.448;2023-12-20T19:13:28;5.40;97.30
1075;DHT22;526;51.392;12.448;2023-12-20T19:16:05;5.40;97.30
1075;DHT22;526;51.392;12.448;2023-12-20T19:18:31;5.40;97.30
1075;DHT22;526;51.392;12.448;2023-12-20T19:20:56;5.40;97.30
1075;DHT22;526;51.392;12.448;2023-12-20T19:23:22;5.40;97.30
1075;DHT22;526;51.392;12.448;2023-12-20T19:25:48;5.40;97.30
1075;DHT22;526;51.392;12.448;2023-12-20T19:28:13;5.40;97.30
1075;DHT22;526;51.392;12.448;2023-12-20T19:30:39;5.40;97.30
1075;DHT22;526;51.392;12.448;2023-12-20T19:33:04;5.40;97.30
1075;DHT22;526;51.392;12.448;2023-12-20T19:35:30;5.50;97.30
1075;DHT22;526;51.392;12.448;2023-12-20T19:37:56;5.50;97.30
1075;DHT22;526;51.392;12.448;2023-12-20T19:40:22;5.50;97.30
1075;DHT22;526;51.392;12.448;2023-12-20T19:42:47;5.60;97.30
1075;DHT22;526;51.392;12.448;2023-12-20T19:45:13;5.60;97.30
1075;DHT22;526;51.392;12.448;2023-12-20T19:47:48;5.60;97.30
1075;DHT22;526;51.392;12.448;2023-12-20T19:50:13;5.60;97.30
1075;DHT22;526;51.392;12.448;2023-12-20T19:52:39;5.60;97.30
1075;DHT22;526;51.392;12.448;2023-12-20T19:55:04;5.70;97.30
1075;DHT22;526;51.392;12.448;2023-12-20T19:57:30;5.70;97.30
1075;DHT22;526;51.392;12.448;2023-12-20T19:59:56;5.70;97.30
1075;DHT22;526;51.392;12.448;2023-12-20T20:02:22;5.70;97.30
1075;DHT22;526;51.392;12.448;2023-12-20T20:04:47;5.70;97.30
1075;DHT22;526;51.392;12.448;2023-12-20T20:07:13;5.70;97.30
1075;DHT22;526;51.392;12.448;2023-12-20T20:09:40;5.80;97.30
1075;DHT22;526;51.392;12.448;2023-12-20T20:12:06;5.80;97.30
1075;DHT22;526;51.392;12.448;2023-12-20T20:14:32;5.80;97.30
1075;DHT22;526;51.392;12.448;2023-12-20T20:16:59;5.80;97.30
1075;DHT22;526;51.392;12.448;2023-12-20T20:19:27;5.80;97.30
1075;DHT22;526;51.392;12.448;2023-12-20T20:21:53;5.90;97.30
1075;DHT22;526;51.392;12.448;2023-12-20T20:24:19;5.90;97.30
1075;DHT22;526;51.392;12.448;2023-12-20T20:26:44;5.90;97.30
1075;DHT22;526;51.392;12.448;2023-12-20T20:29:10;5.90;97.30
1075;DHT22;526;51.392;12.448;2023-12-20T20:31:35;5.90;97.30
1075;DHT22;526;51.392;12.448;2023-12-20T20:34:01;6.00;97.30
1075;DHT22;526;51.392;12.448;2023-12-20T20:36:27;6.00;97.30
1075;DHT22;526;51.392;12.448;2023-12-20T20:38:52;6.00;97.30
1075;DHT22;526;51.392;12.448;2023-12-20T20:41:18;6.10;97.30
1075;DHT22;526;51.392;12.448;2023-12-20T20:43:43;6.10;97.30
1075;DHT22;526;51.392;12.448;2023-12-20T20:46:09;6.10;97.30
1075;DHT22;526;51.392;12.448;2023-12-20T20:48:36;6.10;97.30
1075;DHT22;526;51.392;12.448;2023-12-20T20:51:02;6.10;97.30
1075;DHT22;526;51.392;12.448;2023-12-20T20:53:28;6.10;97.30
1075;DHT22;526;51.392;12.448;2023-12-20T20:55:53;6.10;97.30
1075;DHT22;526;51.392;12.448;2023-12-20T20:58:19;6.10;97.30
1075;DHT22;526;51.392;12.448;2023-12-20T21:00:45;6.10;97.30
1075;DHT22;526;51.392;12.448;2023-12-20T21:03:11;6.20;97.30
1075;DHT22;526;51.392;12.448;2023-12-20T21:05:36;6.20;97.30
1075;DHT22;526;51.392;12.448;2023-12-20T21:08:03;6.20;97.30
1075;DHT22;526;51.392;12.448;2023-12-20T21:10:28;6.30;97.30
1075;DHT22;526;51.392;12.448;2023-12-20T21:12:54;6.30;97.30
1075;DHT22;526;51.392;12.448;2023-12-20T21:15:20;6.40;97.30
1075;DHT22;526;51.392;12.448;2023-12-20T21:17:46;6.40;97.30